sensor_id;sensor_type;location;lat;lon;timestamp;pressure;altitude;pressure_sealevel;temperature;humidity
28354;BME280;15603;50.878;8.036;2022-09-20T00:01:24;145260.91;;;8.45;100.00
28354;BME280;15603;50.878;8.036;2022-09-20T00:03:52;145251.09;;;8.41;100.00
28354;BME280;15603;50.878;8.036;2022-09-20T00:06:20;145240.19;;;8.36;100.00
28354;BME280;15603;50.878;8.036;2022-09-20T00:08:47;145242.66;;;8.37;100.00
28354;BME280;15603;50.878;8.036;2022-09-20T00:11:18;145235.34;;;8.34;100.00
28354;BME280;15603;50.878;8.036;2022-09-20T00:13:47;145243.84;;;8.38;100.00
28354;BME280;15603;50.878;8.036;2022-09-20T00:16:15;145270.59;;;8.49;100.00
28354;BME280;15603;50.878;8.036;2022-09-20T00:18:42;145275.44;;;8.51;100.00
28354;BME280;15603;50.878;8.036;2022-09-20T00:21:16;145262.09;;;8.45;100.00
28354;BME280;15603;50.878;8.036;2022-09-20T00:23:44;145247.50;;;8.39;100.00
28354;BME280;15603;50.878;8.036;2022-09-20T00:26:11;145232.91;;;8.33;100.00
28354;BME280;15603;50.878;8.036;2022-09-20T00:28:39;145230.50;;;8.32;100.00
28354;BME280;15603;50.878;8.036;2022-09-20T00:31:07;145232.91;;;8.33;100.00
28354;BME280;15603;50.878;8.036;2022-09-20T00:33:33;145240.19;;;8.36;100.00
28354;BME280;15603;50.878;8.036;2022-09-20T00:36:19;145241.41;;;8.37;100.00
28354;BME280;15603;50.878;8.036;2022-09-20T00:38:46;145235.34;;;8.34;100.00
28354;BME280;15603;50.878;8.036;2022-09-20T00:41:13;145232.91;;;8.33;100.00
28354;BME280;15603;50.878;8.036;2022-09-20T00:43:41;145232.91;;;8.33;100.00
28354;BME280;15603;50.878;8.036;2022-09-20T00:46:28;145228.06;;;8.31;100.00
28354;BME280;15603;50.878;8.036;2022-09-20T00:48:58;145220.78;;;8.28;100.00
28354;BME280;15603;50.878;8.036;2022-09-20T00:51:30;145207.44;;;8.22;100.00
28354;BME280;15603;50.878;8.036;2022-09-20T00:53:59;145184.41;;;8.13;100.00
28354;BME280;15603;50.878;8.036;2022-09-20T00:56:30;145186.78;;;8.14;100.00
28354;BME280;15603;50.878;8.036;2022-09-20T00:59:07;145195.28;;;8.17;100.00
28354;BME280;15603;50.878;8.036;2022-09-20T01:01:37;145190.44;;;8.15;100.00
28354;BME280;15603;50.878;8.036;2022-09-20T01:04:04;145177.09;;;8.10;100.00
28354;BME280;15603;50.878;8.036;2022-09-20T01:06:31;145133.44;;;7.91;100.00
28354;BME280;15603;50.878;8.036;2022-09-20T01:08:59;145174.69;;;8.09;100.00
28354;BME280;15603;50.878;8.036;2022-09-20T01:11:29;145168.59;;;8.06;100.00
28354;BME280;15603;50.878;8.036;2022-09-20T01:13:56;145167.41;;;8.05;100.00
28354;BME280;15603;50.878;8.036;2022-09-20T01:16:23;145141.91;;;7.95;100.00
28354;BME280;15603;50.878;8.036;2022-09-20T01:18:51;145133.44;;;7.91;100.00
28354;BME280;15603;50.878;8.036;2022-09-20T01:21:18;145116.44;;;7.84;100.00
28354;BME280;15603;50.878;8.036;2022-09-20T01:28:43;145106.75;;;7.80;100.00
28354;BME280;15603;50.878;8.036;2022-09-20T01:31:16;145099.47;;;7.77;100.00
28354;BME280;15603;50.878;8.036;2022-09-20T01:36:33;145065.50;;;7.62;100.00
28354;BME280;15603;50.878;8.036;2022-09-20T01:41:52;145052.16;;;7.57;100.00
28354;BME280;15603;50.878;8.036;2022-09-20T01:47:02;145046.06;;;7.54;100.00
28354;BME280;15603;50.878;8.036;2022-09-20T01:49:44;145040.03;;;7.52;100.00
28354;BME280;15603;50.878;8.036;2022-09-20T01:57:41;145048.53;;;7.55;100.00
28354;BME280;15603;50.878;8.036;2022-09-20T02:00:12;145067.91;;;7.63;100.00
28354;BME280;15603;50.878;8.036;2022-09-20T02:02:47;145099.47;;;7.77;100.00
28354;BME280;15603;50.878;8.036;2022-09-20T02:05:26;145094.59;;;7.75;100.00
28354;BME280;15603;50.878;8.036;2022-09-20T02:10:42;145080.06;;;7.69;100.00
28354;BME280;15603;50.878;8.036;2022-09-20T02:20:59;145050.94;;;7.56;100.00
28354;BME280;15603;50.878;8.036;2022-09-20T02:23:50;145046.06;;;7.54;100.00
28354;BME280;15603;50.878;8.036;2022-09-20T02:31:27;145010.94;;;7.39;100.00
28354;BME280;15603;50.878;8.036;2022-09-20T02:36:45;145017.00;;;7.42;100.00
28354;BME280;15603;50.878;8.036;2022-09-20T02:39:20;145026.69;;;7.46;100.00
28354;BME280;15603;50.878;8.036;2022-09-20T02:44:21;145058.22;;;7.59;100.00
28354;BME280;15603;50.878;8.036;2022-09-20T02:46:55;145076.41;;;7.67;100.00
28354;BME280;15603;50.878;8.036;2022-09-20T03:02:08;145097.06;;;7.76;100.00
28354;BME280;15603;50.878;8.036;2022-09-20T03:07:14;145133.44;;;7.91;100.00
28354;BME280;15603;50.878;8.036;2022-09-20T03:12:55;145120.09;;;7.85;100.00
28354;BME280;15603;50.878;8.036;2022-09-20T03:15:39;145114.00;;;7.83;100.00
28354;BME280;15603;50.878;8.036;2022-09-20T03:18:15;145107.97;;;7.80;100.00
28354;BME280;15603;50.878;8.036;2022-09-20T03:20:55;145101.91;;;7.78;100.00
28354;BME280;15603;50.878;8.036;2022-09-20T03:23:40;145089.75;;;7.73;100.00
28354;BME280;15603;50.878;8.036;2022-09-20T03:28:58;145065.50;;;7.62;100.00
28354;BME280;15603;50.878;8.036;2022-09-20T03:34:29;145063.06;;;7.61;100.00
28354;BME280;15603;50.878;8.036;2022-09-20T03:37:43;145064.28;;;7.62;100.00
28354;BME280;15603;50.878;8.036;2022-09-20T03:39:55;145071.56;;;7.65;100.00
28354;BME280;15603;50.878;8.036;2022-09-20T03:42:27;145072.75;;;7.65;100.00
28354;BME280;15603;50.878;8.036;2022-09-20T04:00:20;145088.56;;;7.72;100.00
28354;BME280;15603;50.878;8.036;2022-09-20T04:05:49;145087.31;;;7.72;100.00
28354;BME280;15603;50.878;8.036;2022-09-20T04:11:11;145123.69;;;7.87;100.00
28354;BME280;15603;50.878;8.036;2022-09-20T04:13:43;145118.84;;;7.85;100.00
28354;BME280;15603;50.878;8.036;2022-09-20T04:21:57;145109.16;;;7.81;100.00
28354;BME280;15603;50.878;8.036;2022-09-20T04:24:35;145094.59;;;7.75;100.00
28354;BME280;15603;50.878;8.036;2022-09-20T04:27:49;145084.91;;;7.71;100.00
28354;BME280;15603;50.878;8.036;2022-09-20T04:30:16;145081.25;;;7.69;100.00
28354;BME280;15603;50.878;8.036;2022-09-20T04:32:49;145075.22;;;7.66;100.00
28354;BME280;15603;50.878;8.036;2022-09-20T04:38:13;145052.16;;;7.57;100.00
28354;BME280;15603;50.878;8.036;2022-09-20T04:56:27;145035.19;;;7.50;100.00
28354;BME280;15603;50.878;8.036;2022-09-20T05:01:49;145052.16;;;7.57;100.00
28354;BME280;15603;50.878;8.036;2022-09-20T05:06:59;145058.22;;;7.59;100.00
28354;BME280;15603;50.878;8.036;2022-09-20T05:23:02;145043.69;;;7.53;100.00
28354;BME280;15603;50.878;8.036;2022-09-20T05:28:34;145058.22;;;7.59;100.00
28354;BME280;15603;50.878;8.036;2022-09-20T05:31:05;145053.38;;;7.57;100.00
28354;BME280;15603;50.878;8.036;2022-09-20T05:44:03;145050.94;;;7.56;100.00
28354;BME280;15603;50.878;8.036;2022-09-20T05:46:48;145055.81;;;7.58;100.00
28354;BME280;15603;50.878;8.036;2022-09-20T05:57:17;145088.56;;;7.72;100.00
28354;BME280;15603;50.878;8.036;2022-09-20T05:59:55;145070.38;;;7.64;100.00
28354;BME280;15603;50.878;8.036;2022-09-20T06:02:39;145077.63;;;7.67;100.00
28354;BME280;15603;50.878;8.036;2022-09-20T06:05:15;145080.06;;;7.69;100.00
28354;BME280;15603;50.878;8.036;2022-09-20T06:10:14;145128.59;;;7.89;100.00
28354;BME280;15603;50.878;8.036;2022-09-20T06:12:51;145138.31;;;7.93;100.00
28354;BME280;15603;50.878;8.036;2022-09-20T06:15:33;145129.81;;;7.90;100.00
28354;BME280;15603;50.878;8.036;2022-09-20T06:18:07;145007.28;;;7.38;100.00
28354;BME280;15603;50.878;8.036;2022-09-20T06:20:57;145150.41;;;7.98;100.00
28354;BME280;15603;50.878;8.036;2022-09-20T06:23:27;145132.19;;;7.91;100.00
28354;BME280;15603;50.878;8.036;2022-09-20T06:25:58;145150.41;;;7.98;100.00
28354;BME280;15603;50.878;8.036;2022-09-20T06:28:29;145196.50;;;8.18;100.00
28354;BME280;15603;50.878;8.036;2022-09-20T06:30:56;145166.19;;;8.05;100.00
28354;BME280;15603;50.878;8.036;2022-09-20T06:33:24;145196.50;;;8.18;100.00
28354;BME280;15603;50.878;8.036;2022-09-20T06:35:52;145225.66;;;8.30;100.00
28354;BME280;15603;50.878;8.036;2022-09-20T06:38:35;145274.25;;;8.51;100.00
28354;BME280;15603;50.878;8.036;2022-09-20T06:41:24;145283.97;;;8.55;100.00
28354;BME280;15603;50.878;8.036;2022-09-20T06:43:54;145296.06;;;8.60;100.00
28354;BME280;15603;50.878;8.036;2022-09-20T06:46:25;145347.09;;;8.81;100.00
28354;BME280;15603;50.878;8.036;2022-09-20T06:48:54;145300.91;;;8.62;100.00
28354;BME280;15603;50.878;8.036;2022-09-20T06:51:22;145322.78;;;8.71;100.00
28354;BME280;15603;50.878;8.036;2022-09-20T06:53:49;145327.63;;;8.73;100.00
28354;BME280;15603;50.878;8.036;2022-09-20T06:56:17;145344.63;;;8.80;100.00
28354;BME280;15603;50.878;8.036;2022-09-20T06:58:45;145381.06;;;8.96;100.00
28354;BME280;15603;50.878;8.036;2022-09-20T07:01:12;145402.91;;;9.05;100.00
28354;BME280;15603;50.878;8.036;2022-09-20T07:03:39;145429.63;;;9.16;100.00
28354;BME280;15603;50.878;8.036;2022-09-20T07:06:07;145452.69;;;9.26;100.00
28354;BME280;15603;50.878;8.036;2022-09-20T07:08:34;145470.91;;;9.34;100.00
28354;BME280;15603;50.878;8.036;2022-09-20T07:11:05;145502.50;;;9.47;100.00
28354;BME280;15603;50.878;8.036;2022-09-20T07:13:34;145530.41;;;9.59;100.00
28354;BME280;15603;50.878;8.036;2022-09-20T07:16:03;145563.22;;;9.73;100.00
28354;BME280;15603;50.878;8.036;2022-09-20T07:18:30;145604.50;;;9.90;100.00
28354;BME280;15603;50.878;8.036;2022-09-20T07:20:59;145628.78;;;10.00;100.00
28354;BME280;15603;50.878;8.036;2022-09-20T07:23:26;145621.53;;;9.97;100.00
28354;BME280;15603;50.878;8.036;2022-09-20T07:25:55;145558.34;;;9.71;100.00
28354;BME280;15603;50.878;8.036;2022-09-20T07:28:27;145594.78;;;9.86;100.00
28354;BME280;15603;50.878;8.036;2022-09-20T07:30:54;145648.28;;;10.09;100.00
28354;BME280;15603;50.878;8.036;2022-09-20T07:33:21;145690.78;;;10.27;100.00
28354;BME280;15603;50.878;8.036;2022-09-20T07:35:51;145761.28;;;10.56;100.00
28354;BME280;15603;50.878;8.036;2022-09-20T07:38:21;145816.00;;;10.79;100.00
28354;BME280;15603;50.878;8.036;2022-09-20T07:40:58;145893.78;;;11.12;100.00
28354;BME280;15603;50.878;8.036;2022-09-20T07:43:26;145978.94;;;11.48;100.00
28354;BME280;15603;50.878;8.036;2022-09-20T07:45:53;146023.94;;;11.67;100.00
28354;BME280;15603;50.878;8.036;2022-09-20T07:48:22;145983.81;;;11.50;100.00
28354;BME280;15603;50.878;8.036;2022-09-20T07:50:52;145961.91;;;11.41;100.00
28354;BME280;15603;50.878;8.036;2022-09-20T07:53:19;145901.09;;;11.15;100.00
28354;BME280;15603;50.878;8.036;2022-09-20T07:55:56;145876.81;;;11.05;100.00
28354;BME280;15603;50.878;8.036;2022-09-20T07:58:23;145923.00;;;11.25;100.00
28354;BME280;15603;50.878;8.036;2022-09-20T08:00:53;146004.50;;;11.59;100.00
28354;BME280;15603;50.878;8.036;2022-09-20T08:03:21;146078.72;;;11.90;100.00
28354;BME280;15603;50.878;8.036;2022-09-20T08:05:48;146137.13;;;12.15;100.00
28354;BME280;15603;50.878;8.036;2022-09-20T08:08:17;146232.06;;;12.55;100.00
28354;BME280;15603;50.878;8.036;2022-09-20T08:10:44;146211.34;;;12.46;100.00
28354;BME280;15603;50.878;8.036;2022-09-20T08:13:12;146193.09;;;12.38;100.00
28354;BME280;15603;50.878;8.036;2022-09-20T08:15:59;146090.91;;;11.95;100.00
28354;BME280;15603;50.878;8.036;2022-09-20T08:18:27;146099.44;;;11.99;100.00
28354;BME280;15603;50.878;8.036;2022-09-20T08:20:53;146008.16;;;11.61;100.00
28354;BME280;15603;50.878;8.036;2022-09-20T08:23:21;146047.06;;;11.77;100.00
28354;BME280;15603;50.878;8.036;2022-09-20T08:25:49;146021.50;;;11.66;100.00
28354;BME280;15603;50.878;8.036;2022-09-20T08:28:16;145983.81;;;11.50;100.00
28354;BME280;15603;50.878;8.036;2022-09-20T08:30:43;145997.19;;;11.56;100.00
28354;BME280;15603;50.878;8.036;2022-09-20T08:33:10;146006.91;;;11.60;100.00
28354;BME280;15603;50.878;8.036;2022-09-20T08:35:38;146062.91;;;11.84;100.00
28354;BME280;15603;50.878;8.036;2022-09-20T08:38:05;146059.22;;;11.82;100.00
28354;BME280;15603;50.878;8.036;2022-09-20T08:40:56;146047.06;;;11.77;100.00
28354;BME280;15603;50.878;8.036;2022-09-20T08:43:26;146117.69;;;12.07;100.00
28354;BME280;15603;50.878;8.036;2022-09-20T08:45:55;146154.19;;;12.22;100.00
28354;BME280;15603;50.878;8.036;2022-09-20T08:48:25;146194.31;;;12.39;100.00
28354;BME280;15603;50.878;8.036;2022-09-20T08:50:54;146173.66;;;12.30;99.14
28354;BME280;15603;50.878;8.036;2022-09-20T08:53:21;146197.97;;;12.41;99.66
28354;BME280;15603;50.878;8.036;2022-09-20T08:55:48;146260.06;;;12.67;100.00
28354;BME280;15603;50.878;8.036;2022-09-20T08:58:15;146363.50;;;13.10;98.36
28354;BME280;15603;50.878;8.036;2022-09-20T09:00:43;146440.28;;;13.43;95.22
28354;BME280;15603;50.878;8.036;2022-09-20T09:03:12;146490.22;;;13.64;92.76
28354;BME280;15603;50.878;8.036;2022-09-20T09:05:42;146451.25;;;13.47;92.98
28354;BME280;15603;50.878;8.036;2022-09-20T09:08:10;146351.34;;;13.05;93.61
28354;BME280;15603;50.878;8.036;2022-09-20T09:10:44;146266.13;;;12.69;93.07
28354;BME280;15603;50.878;8.036;2022-09-20T09:13:17;146268.59;;;12.70;96.66
28354;BME280;15603;50.878;8.036;2022-09-20T09:15:50;146283.19;;;12.76;94.36
28354;BME280;15603;50.878;8.036;2022-09-20T09:18:18;146275.84;;;12.73;93.44
28354;BME280;15603;50.878;8.036;2022-09-20T09:20:45;146279.53;;;12.75;91.97
28354;BME280;15603;50.878;8.036;2022-09-20T09:23:22;146378.16;;;13.16;90.92
28354;BME280;15603;50.878;8.036;2022-09-20T09:25:52;146437.88;;;13.42;89.47
28354;BME280;15603;50.878;8.036;2022-09-20T09:28:23;146475.59;;;13.58;87.19
28354;BME280;15603;50.878;8.036;2022-09-20T09:30:51;146499.94;;;13.68;88.36
28354;BME280;15603;50.878;8.036;2022-09-20T09:33:28;146490.22;;;13.64;87.79
28354;BME280;15603;50.878;8.036;2022-09-20T09:35:59;146426.88;;;13.37;87.30
28354;BME280;15603;50.878;8.036;2022-09-20T09:38:37;146422.00;;;13.35;86.57
28354;BME280;15603;50.878;8.036;2022-09-20T09:41:05;146320.91;;;12.92;85.55
28354;BME280;15603;50.878;8.036;2022-09-20T09:43:35;146309.97;;;12.88;87.02
28354;BME280;15603;50.878;8.036;2022-09-20T09:46:16;146309.97;;;12.88;87.97
28354;BME280;15603;50.878;8.036;2022-09-20T09:48:44;146277.06;;;12.74;88.66
28354;BME280;15603;50.878;8.036;2022-09-20T09:51:16;146271.00;;;12.71;90.79
28354;BME280;15603;50.878;8.036;2022-09-20T09:53:44;146257.59;;;12.66;92.43
28354;BME280;15603;50.878;8.036;2022-09-20T09:56:25;146219.88;;;12.50;96.09
28354;BME280;15603;50.878;8.036;2022-09-20T09:59:17;146202.84;;;12.43;93.91
28354;BME280;15603;50.878;8.036;2022-09-20T10:02:06;146228.41;;;12.53;97.88
28354;BME280;15603;50.878;8.036;2022-09-20T10:12:24;146590.09;;;14.06;87.50
28354;BME280;15603;50.878;8.036;2022-09-20T10:17:45;146601.06;;;14.10;76.18
28354;BME280;15603;50.878;8.036;2022-09-20T10:23:00;146752.22;;;14.74;76.15
28354;BME280;15603;50.878;8.036;2022-09-20T10:26:20;146781.50;;;14.86;75.98
28354;BME280;15603;50.878;8.036;2022-09-20T10:28:54;146780.28;;;14.86;72.76
28354;BME280;15603;50.878;8.036;2022-09-20T10:31:46;146687.56;;;14.47;73.14
28354;BME280;15603;50.878;8.036;2022-09-20T10:37:15;146577.91;;;14.01;73.03
28354;BME280;15603;50.878;8.036;2022-09-20T10:39:47;146588.91;;;14.05;73.12
28354;BME280;15603;50.878;8.036;2022-09-20T10:42:40;146619.34;;;14.18;74.46
28354;BME280;15603;50.878;8.036;2022-09-20T10:46:12;146594.97;;;14.08;74.26
28354;BME280;15603;50.878;8.036;2022-09-20T10:48:41;146612.03;;;14.15;75.28
28354;BME280;15603;50.878;8.036;2022-09-20T10:51:23;146638.84;;;14.26;72.61
28354;BME280;15603;50.878;8.036;2022-09-20T10:56:24;146697.31;;;14.51;73.55
28354;BME280;15603;50.878;8.036;2022-09-20T11:02:14;146736.38;;;14.67;72.35
28354;BME280;15603;50.878;8.036;2022-09-20T11:07:39;146708.31;;;14.56;70.62
28354;BME280;15603;50.878;8.036;2022-09-20T11:10:20;146760.75;;;14.78;69.25
28354;BME280;15603;50.878;8.036;2022-09-20T11:12:51;146751.00;;;14.73;69.86
28354;BME280;15603;50.878;8.036;2022-09-20T11:18:21;146690.03;;;14.48;69.07
28354;BME280;15603;50.878;8.036;2022-09-20T11:20:52;146683.94;;;14.45;70.86
28354;BME280;15603;50.878;8.036;2022-09-20T11:26:10;146887.53;;;15.31;67.21
28354;BME280;15603;50.878;8.036;2022-09-20T11:28:44;146974.13;;;15.67;64.54
28354;BME280;15603;50.878;8.036;2022-09-20T11:33:47;146944.88;;;15.55;62.56
28354;BME280;15603;50.878;8.036;2022-09-20T11:36:20;146942.41;;;15.54;64.36
28354;BME280;15603;50.878;8.036;2022-09-20T11:41:26;146950.97;;;15.58;60.88
28354;BME280;15603;50.878;8.036;2022-09-20T11:43:54;146963.16;;;15.63;60.94
28354;BME280;15603;50.878;8.036;2022-09-20T11:46:24;146940.00;;;15.53;58.09
28354;BME280;15603;50.878;8.036;2022-09-20T11:49:04;146931.47;;;15.49;60.02
28354;BME280;15603;50.878;8.036;2022-09-20T11:56:52;146921.72;;;15.45;61.83
28354;BME280;15603;50.878;8.036;2022-09-20T11:59:41;146943.63;;;15.55;62.85
28354;BME280;15603;50.878;8.036;2022-09-20T12:04:51;147026.59;;;15.89;60.64
28354;BME280;15603;50.878;8.036;2022-09-20T12:07:22;147052.25;;;16.00;60.15
28354;BME280;15603;50.878;8.036;2022-09-20T12:09:59;147085.16;;;16.14;58.79
28354;BME280;15603;50.878;8.036;2022-09-20T12:14:54;147129.09;;;16.33;57.69
28354;BME280;15603;50.878;8.036;2022-09-20T12:23:03;147141.28;;;16.38;57.23
28354;BME280;15603;50.878;8.036;2022-09-20T12:25:57;147008.31;;;15.82;57.72
28354;BME280;15603;50.878;8.036;2022-09-20T12:28:36;146946.09;;;15.56;58.93
28354;BME280;15603;50.878;8.036;2022-09-20T12:36:28;146924.13;;;15.46;63.22
28354;BME280;15603;50.878;8.036;2022-09-20T12:39:12;146926.59;;;15.47;59.62
28354;BME280;15603;50.878;8.036;2022-09-20T12:42:00;146990.00;;;15.74;60.11
28354;BME280;15603;50.878;8.036;2022-09-20T13:00:43;147004.69;;;15.80;60.83
28354;BME280;15603;50.878;8.036;2022-09-20T13:10:59;146977.78;;;15.69;61.25
28354;BME280;15603;50.878;8.036;2022-09-20T13:13:41;147007.09;;;15.81;61.15
28354;BME280;15603;50.878;8.036;2022-09-20T13:19:03;147107.13;;;16.23;62.33
28354;BME280;15603;50.878;8.036;2022-09-20T13:21:32;147041.28;;;15.96;57.86
28354;BME280;15603;50.878;8.036;2022-09-20T13:24:00;147092.50;;;16.17;58.61
28354;BME280;15603;50.878;8.036;2022-09-20T13:26:29;147070.53;;;16.08;59.90
28354;BME280;15603;50.878;8.036;2022-09-20T13:28:58;147073.00;;;16.09;59.14
28354;BME280;15603;50.878;8.036;2022-09-20T13:31:27;147085.16;;;16.14;59.83
28354;BME280;15603;50.878;8.036;2022-09-20T13:34:10;147085.16;;;16.14;59.86
28354;BME280;15603;50.878;8.036;2022-09-20T13:36:38;147075.41;;;16.10;58.06
28354;BME280;15603;50.878;8.036;2022-09-20T13:39:05;147136.41;;;16.36;60.32
28354;BME280;15603;50.878;8.036;2022-09-20T13:41:32;147029.06;;;15.90;57.93
28354;BME280;15603;50.878;8.036;2022-09-20T13:44:01;147140.06;;;16.37;59.61
28354;BME280;15603;50.878;8.036;2022-09-20T13:46:29;147121.78;;;16.29;57.28
28354;BME280;15603;50.878;8.036;2022-09-20T13:49:11;147094.91;;;16.18;57.07
28354;BME280;15603;50.878;8.036;2022-09-20T13:51:40;147060.78;;;16.04;58.64
28354;BME280;15603;50.878;8.036;2022-09-20T13:54:17;147060.78;;;16.04;58.56
28354;BME280;15603;50.878;8.036;2022-09-20T13:56:44;147019.31;;;15.86;59.42
28354;BME280;15603;50.878;8.036;2022-09-20T13:59:11;147015.66;;;15.85;59.20
28354;BME280;15603;50.878;8.036;2022-09-20T14:01:52;147015.66;;;15.85;60.24
28354;BME280;15603;50.878;8.036;2022-09-20T14:04:23;147024.19;;;15.88;61.13
28354;BME280;15603;50.878;8.036;2022-09-20T14:06:51;147069.31;;;16.07;60.53
28354;BME280;15603;50.878;8.036;2022-09-20T14:09:20;147082.75;;;16.13;62.20
28354;BME280;15603;50.878;8.036;2022-09-20T14:11:49;147031.47;;;15.92;62.20
28354;BME280;15603;50.878;8.036;2022-09-20T14:14:16;147060.78;;;16.04;65.88
28354;BME280;15603;50.878;8.036;2022-09-20T14:16:48;147053.44;;;16.01;64.14
28354;BME280;15603;50.878;8.036;2022-09-20T14:19:16;146977.78;;;15.69;66.71
28354;BME280;15603;50.878;8.036;2022-09-20T14:21:44;146964.38;;;15.63;66.67
28354;BME280;15603;50.878;8.036;2022-09-20T14:26:42;146997.34;;;15.77;63.69
28354;BME280;15603;50.878;8.036;2022-09-20T14:29:38;146992.47;;;15.75;63.42
28354;BME280;15603;50.878;8.036;2022-09-20T14:34:44;147002.22;;;15.79;65.18
28354;BME280;15603;50.878;8.036;2022-09-20T14:37:13;146968.06;;;15.65;60.79
28354;BME280;15603;50.878;8.036;2022-09-20T14:39:52;146970.47;;;15.66;61.06
28354;BME280;15603;50.878;8.036;2022-09-20T14:42:30;146982.69;;;15.71;61.05
28354;BME280;15603;50.878;8.036;2022-09-20T14:44:58;146980.22;;;15.70;60.47
28354;BME280;15603;50.878;8.036;2022-09-20T14:47:26;147019.31;;;15.86;60.04
28354;BME280;15603;50.878;8.036;2022-09-20T14:49:54;147041.28;;;15.96;59.06
28354;BME280;15603;50.878;8.036;2022-09-20T14:55:01;147079.09;;;16.12;58.02
28354;BME280;15603;50.878;8.036;2022-09-20T14:57:29;147092.50;;;16.17;58.28
28354;BME280;15603;50.878;8.036;2022-09-20T14:59:57;147058.31;;;16.03;58.17
28354;BME280;15603;50.878;8.036;2022-09-20T15:02:30;147011.97;;;15.83;60.85
28354;BME280;15603;50.878;8.036;2022-09-20T15:05:00;147046.16;;;15.98;60.28
28354;BME280;15603;50.878;8.036;2022-09-20T15:07:27;146983.88;;;15.71;62.26
28354;BME280;15603;50.878;8.036;2022-09-20T15:09:55;146968.06;;;15.65;62.91
28354;BME280;15603;50.878;8.036;2022-09-20T15:12:21;146941.22;;;15.54;64.83
28354;BME280;15603;50.878;8.036;2022-09-20T15:14:48;146918.03;;;15.44;65.94
28354;BME280;15603;50.878;8.036;2022-09-20T15:17:16;146909.50;;;15.40;64.03
28354;BME280;15603;50.878;8.036;2022-09-20T15:19:47;146892.41;;;15.33;66.82
28354;BME280;15603;50.878;8.036;2022-09-20T15:22:14;146843.63;;;15.12;65.04
28354;BME280;15603;50.878;8.036;2022-09-20T15:24:41;146790.03;;;14.90;63.59
28354;BME280;15603;50.878;8.036;2022-09-20T15:27:11;146772.94;;;14.83;65.01
28354;BME280;15603;50.878;8.036;2022-09-20T15:29:38;146770.50;;;14.82;63.75
28354;BME280;15603;50.878;8.036;2022-09-20T15:32:05;146748.59;;;14.72;65.10
28354;BME280;15603;50.878;8.036;2022-09-20T15:34:32;146716.91;;;14.59;63.08
28354;BME280;15603;50.878;8.036;2022-09-20T15:36:59;146725.44;;;14.63;64.38
28354;BME280;15603;50.878;8.036;2022-09-20T15:39:26;146764.41;;;14.79;64.10
28354;BME280;15603;50.878;8.036;2022-09-20T15:41:53;146797.31;;;14.93;63.66
28354;BME280;15603;50.878;8.036;2022-09-20T15:44:20;146824.13;;;15.04;64.21
28354;BME280;15603;50.878;8.036;2022-09-20T15:46:49;146848.56;;;15.15;65.06
28354;BME280;15603;50.878;8.036;2022-09-20T15:49:15;146887.53;;;15.31;64.77
28354;BME280;15603;50.878;8.036;2022-09-20T15:51:42;146890.00;;;15.32;63.02
28354;BME280;15603;50.878;8.036;2022-09-20T15:54:10;146824.13;;;15.04;66.64
28354;BME280;15603;50.878;8.036;2022-09-20T15:56:38;146846.09;;;15.14;65.41
28354;BME280;15603;50.878;8.036;2022-09-20T15:59:08;146809.53;;;14.98;66.39
28354;BME280;15603;50.878;8.036;2022-09-20T16:01:36;146792.44;;;14.91;67.97
28354;BME280;15603;50.878;8.036;2022-09-20T16:06:32;146888.75;;;15.31;63.85
28354;BME280;15603;50.878;8.036;2022-09-20T16:08:59;146863.19;;;15.21;66.05
28354;BME280;15603;50.878;8.036;2022-09-20T16:11:26;146865.59;;;15.22;65.70
28354;BME280;15603;50.878;8.036;2022-09-20T16:13:54;146819.25;;;15.02;68.19
28354;BME280;15603;50.878;8.036;2022-09-20T16:16:21;146835.13;;;15.09;67.32
28354;BME280;15603;50.878;8.036;2022-09-20T16:18:48;146803.44;;;14.96;69.16
28354;BME280;15603;50.878;8.036;2022-09-20T16:21:35;146785.16;;;14.88;68.56
28354;BME280;15603;50.878;8.036;2022-09-20T16:24:02;146765.63;;;14.80;66.20
28354;BME280;15603;50.878;8.036;2022-09-20T16:26:31;146747.34;;;14.72;66.63
28354;BME280;15603;50.878;8.036;2022-09-20T16:29:00;146721.75;;;14.61;68.83
28354;BME280;15603;50.878;8.036;2022-09-20T16:31:32;146712.03;;;14.57;66.78
28354;BME280;15603;50.878;8.036;2022-09-20T16:34:01;146680.28;;;14.44;67.09
28354;BME280;15603;50.878;8.036;2022-09-20T16:36:30;146682.69;;;14.45;68.03
28354;BME280;15603;50.878;8.036;2022-09-20T16:38:57;146648.59;;;14.30;68.44
28354;BME280;15603;50.878;8.036;2022-09-20T16:41:25;146614.47;;;14.16;69.15
28354;BME280;15603;50.878;8.036;2022-09-20T16:43:52;146531.63;;;13.81;69.58
28354;BME280;15603;50.878;8.036;2022-09-20T16:46:20;146587.66;;;14.05;71.33
28354;BME280;15603;50.878;8.036;2022-09-20T16:48:47;146558.44;;;13.92;72.15
28354;BME280;15603;50.878;8.036;2022-09-20T16:51:25;146497.53;;;13.67;71.96
28354;BME280;15603;50.878;8.036;2022-09-20T16:53:55;146519.47;;;13.76;74.06
28354;BME280;15603;50.878;8.036;2022-09-20T16:56:23;146467.06;;;13.54;76.38
28354;BME280;15603;50.878;8.036;2022-09-20T16:58:51;146419.59;;;13.34;77.58
28354;BME280;15603;50.878;8.036;2022-09-20T17:01:18;146400.03;;;13.26;77.62
28354;BME280;15603;50.878;8.036;2022-09-20T17:03:45;146365.97;;;13.11;80.63
28354;BME280;15603;50.878;8.036;2022-09-20T17:06:13;146344.03;;;13.02;80.65
28354;BME280;15603;50.878;8.036;2022-09-20T17:08:41;146320.91;;;12.92;81.83
28354;BME280;15603;50.878;8.036;2022-09-20T17:11:11;146297.78;;;12.83;83.54
28354;BME280;15603;50.878;8.036;2022-09-20T17:13:41;146255.19;;;12.65;84.13
28354;BME280;15603;50.878;8.036;2022-09-20T17:16:12;146251.53;;;12.63;84.56
28354;BME280;15603;50.878;8.036;2022-09-20T17:18:39;146239.34;;;12.58;85.42